createdAt,value
2023-02-22T00:02:25.733Z,97.72
2023-02-22T00:04:55.013Z,97.86
2023-02-22T00:07:24.166Z,97.08
2023-02-22T00:09:53.154Z,96.31
2023-02-22T00:12:22.142Z,95.66
2023-02-22T00:14:51.453Z,94.89
2023-02-22T00:17:20.791Z,93.55
2023-02-22T00:19:50.606Z,91.81
2023-02-22T00:22:19.804Z,90.99
2023-02-22T00:24:48.918Z,89.68
2023-02-22T00:27:17.758Z,89.18
2023-02-22T00:29:47.375Z,88.64
2023-02-22T00:32:16.775Z,87.78
2023-02-22T00:34:45.754Z,87.06
2023-02-22T00:37:14.654Z,87.15
2023-02-22T00:39:47.520Z,86.54
2023-02-22T00:42:19.330Z,86.52
2023-02-22T00:44:48.136Z,86.51
2023-02-22T00:47:16.949Z,85.96
2023-02-22T00:49:45.818Z,85.14
2023-02-22T00:52:14.522Z,84.80
2023-02-22T00:54:43.300Z,85.55
2023-02-22T00:57:13.071Z,85.60
2023-02-22T00:59:41.911Z,85.37
2023-02-22T01:02:10.757Z,85.24
2023-02-22T01:04:40.317Z,84.46
2023-02-22T01:07:09.386Z,82.34
2023-02-22T01:09:39.922Z,80.38
2023-02-22T01:12:09.888Z,79.83
2023-02-22T01:14:40.425Z,79.29
2023-02-22T01:17:10.410Z,78.66
2023-02-22T01:19:42.815Z,78.61
2023-02-22T01:22:11.594Z,78.36
2023-02-22T01:24:41.202Z,77.66
2023-02-22T01:27:11.190Z,75.97
2023-02-22T01:29:39.943Z,75.42
2023-02-22T01:32:09.006Z,74.04
2023-02-22T01:34:38.803Z,72.34
2023-02-22T01:37:07.603Z,71.31
2023-02-22T01:39:36.391Z,70.09
2023-02-22T01:50:04.398Z,70.83
2023-02-22T01:52:33.192Z,70.62
2023-02-22T01:55:02.094Z,69.48
2023-02-22T01:57:37.794Z,69.59
2023-02-22T02:00:13.162Z,70.11
2023-02-22T02:02:46.163Z,69.19
2023-02-22T02:05:15.525Z,68.89
2023-02-22T02:07:46.679Z,69.13
2023-02-22T02:10:16.040Z,69.18
2023-02-22T02:12:50.893Z,70.19
2023-02-22T02:15:33.861Z,70.58
2023-02-22T02:18:09.573Z,71.37
2023-02-22T02:21:01.102Z,71.54
2023-02-22T02:24:05.750Z,71.79
2023-02-22T02:26:52.781Z,71.95
2023-02-22T02:29:55.533Z,72.32
2023-02-22T02:33:20.911Z,72.45
2023-02-22T02:36:09.812Z,73.07
2023-02-22T02:38:56.727Z,73.22
2023-02-22T02:41:37.201Z,73.57
2023-02-22T02:44:17.979Z,73.73
2023-02-22T02:47:15.663Z,73.84
2023-02-22T02:49:55.077Z,73.61
2023-02-22T02:52:26.258Z,74.07
2023-02-22T02:54:56.773Z,73.88
2023-02-22T02:57:25.669Z,73.84
2023-02-22T02:59:54.484Z,73.60
2023-02-22T03:02:55.626Z,73.95
2023-02-22T03:05:47.805Z,73.83
2023-02-22T03:08:43.433Z,73.69
2023-02-22T03:11:35.859Z,73.43
2023-02-22T03:14:23.130Z,73.34
2023-02-22T03:17:16.925Z,73.54
2023-02-22T03:20:05.231Z,72.71
2023-02-22T03:22:48.311Z,72.58
2023-02-22T03:25:34.222Z,72.67
2023-02-22T03:28:14.946Z,72.54
2023-02-22T03:31:08.080Z,72.27
2023-02-22T03:33:50.938Z,72.19
2023-02-22T03:36:31.718Z,72.07
2023-02-22T03:39:04.486Z,71.75
2023-02-22T03:41:38.839Z,71.25
2023-02-22T03:44:16.738Z,71.22
2023-02-22T03:46:51.512Z,70.98
2023-02-22T03:49:35.296Z,71.19
2023-02-22T03:52:06.844Z,70.85
2023-02-22T03:54:36.384Z,70.84
2023-02-22T03:57:20.279Z,70.69
2023-02-22T03:59:53.854Z,70.76
2023-02-22T04:02:24.041Z,70.65
2023-02-22T04:04:53.324Z,70.91
2023-02-22T04:07:22.281Z,71.08
2023-02-22T04:09:51.641Z,71.39
2023-02-22T04:12:20.460Z,71.56
2023-02-22T04:14:59.702Z,71.46
2023-02-22T04:17:28.760Z,71.58
2023-02-22T04:19:57.682Z,71.68
2023-02-22T04:22:28.261Z,72.12
2023-02-22T04:24:57.210Z,72.32
2023-02-22T04:27:26.168Z,72.47
2023-02-22T04:29:57.446Z,72.81
2023-02-22T04:32:26.464Z,73.80
2023-02-22T04:34:55.504Z,73.81
2023-02-22T04:37:24.397Z,74.54
2023-02-22T04:39:54.345Z,73.41
2023-02-22T04:42:23.606Z,73.58
2023-02-22T04:44:52.402Z,73.60
2023-02-22T04:47:21.486Z,73.38
2023-02-22T04:49:50.536Z,73.42
2023-02-22T04:52:19.509Z,73.66
2023-02-22T04:54:48.457Z,73.31
2023-02-22T04:57:17.338Z,73.21
2023-02-22T04:59:46.235Z,73.19
2023-02-22T05:02:15.193Z,72.88
2023-02-22T05:04:44.024Z,72.90
2023-02-22T05:07:13.145Z,73.07
2023-02-22T05:09:42.224Z,73.25
2023-02-22T05:12:11.102Z,73.05
2023-02-22T05:14:39.828Z,73.42
2023-02-22T05:17:08.774Z,73.18
2023-02-22T05:19:37.587Z,73.16
2023-02-22T05:22:06.460Z,73.15
2023-02-22T05:24:35.296Z,73.21
2023-02-22T05:27:04.146Z,73.43
2023-02-22T05:29:32.886Z,73.28
2023-02-22T05:32:02.835Z,73.42
2023-02-22T05:34:32.532Z,73.61
2023-02-22T05:37:01.390Z,73.72
2023-02-22T05:39:31.629Z,73.91
2023-02-22T05:42:00.464Z,73.91
2023-02-22T05:44:29.260Z,73.96
2023-02-22T05:46:58.078Z,73.41
2023-02-22T05:49:26.846Z,73.35
2023-02-22T05:51:59.701Z,72.98
2023-02-22T05:54:28.489Z,73.08
2023-02-22T05:56:57.267Z,72.88
2023-02-22T05:59:26.009Z,72.89
2023-02-22T06:01:54.777Z,72.87
2023-02-22T06:04:23.579Z,72.87
2023-02-22T06:06:52.380Z,72.64
2023-02-22T06:09:21.325Z,72.47
2023-02-22T06:11:50.342Z,72.40
2023-02-22T06:14:19.183Z,72.16
2023-02-22T06:16:55.900Z,72.04
2023-02-22T06:19:25.233Z,72.13
2023-02-22T06:21:56.915Z,71.43
2023-02-22T06:24:26.102Z,71.23
2023-02-22T06:26:57.436Z,70.83
2023-02-22T06:40:45.633Z,68.88
2023-02-22T06:43:14.442Z,68.78
2023-02-22T06:45:44.111Z,68.86
2023-02-22T06:48:13.774Z,69.10
2023-02-22T06:50:42.545Z,68.70
2023-02-22T06:53:11.270Z,68.03
2023-02-22T06:55:40.050Z,67.78
2023-02-22T06:58:08.781Z,67.14
2023-02-22T07:00:37.647Z,66.92
2023-02-22T07:03:06.639Z,66.27
2023-02-22T07:05:35.658Z,65.93
2023-02-22T07:08:07.985Z,63.54
2023-02-22T07:10:38.682Z,62.62
2023-02-22T19:19:14.831Z,64.91
2023-02-22T19:21:43.749Z,64.99
2023-02-22T19:24:13.527Z,64.99
2023-02-22T19:26:51.617Z,65.17
2023-02-22T19:29:24.022Z,65.08
2023-02-22T19:31:54.100Z,64.65
2023-02-22T19:34:26.030Z,64.43
2023-02-22T19:36:59.192Z,64.49
2023-02-22T19:39:29.377Z,63.86
2023-02-22T19:42:06.290Z,64.17
2023-02-22T19:44:36.441Z,64.67
2023-02-22T19:47:10.410Z,64.45
2023-02-22T19:49:41.308Z,64.23
2023-02-22T19:52:10.146Z,64.49
2023-02-22T19:54:38.918Z,64.37
2023-02-22T19:57:07.931Z,64.39
2023-02-22T19:59:36.722Z,64.23
2023-02-22T20:02:06.193Z,64.50
2023-02-22T20:04:37.614Z,64.44
2023-02-22T20:07:06.883Z,64.15
2023-02-22T20:09:40.455Z,64.71
2023-02-22T20:12:10.079Z,64.61
2023-02-22T20:14:40.034Z,64.39
2023-02-22T20:17:10.526Z,64.28
2023-02-22T20:19:40.865Z,64.17
2023-02-22T20:22:10.291Z,64.34
2023-02-22T20:24:39.164Z,64.30
2023-02-22T20:27:09.479Z,64.59
2023-02-22T20:29:38.347Z,64.96
2023-02-22T20:32:12.345Z,64.51
2023-02-22T20:34:46.721Z,64.85
2023-02-22T20:37:16.095Z,64.56
2023-02-22T20:39:45.025Z,64.44
2023-02-22T20:42:15.749Z,64.53
2023-02-22T20:44:47.758Z,64.42
2023-02-22T20:47:16.562Z,64.81
2023-02-22T20:49:45.435Z,64.89
2023-02-22T20:52:14.394Z,65.01
2023-02-22T20:54:43.258Z,65.30
2023-02-22T20:57:12.025Z,65.35
2023-02-22T20:59:40.807Z,65.65
2023-02-22T21:02:11.103Z,65.34
2023-02-22T21:04:40.241Z,65.53
2023-02-22T21:07:10.029Z,65.46
2023-02-22T21:09:38.915Z,65.65
2023-02-22T21:12:13.773Z,65.57
2023-02-22T21:14:44.485Z,66.06
2023-02-22T21:19:39.912Z,65.95
2023-02-22T21:22:09.030Z,66.06
2023-02-22T21:24:38.249Z,66.14
2023-02-22T21:27:07.359Z,66.10
2023-02-22T21:29:36.630Z,66.06
2023-02-22T21:32:06.074Z,66.16
2023-02-22T21:34:36.561Z,66.20
2023-02-22T21:37:08.477Z,66.11
2023-02-22T21:39:37.975Z,66.36
2023-02-22T21:42:07.560Z,66.36
2023-02-22T21:44:36.880Z,66.37
2023-02-22T21:47:06.260Z,66.51
2023-02-22T21:49:35.366Z,66.71
2023-02-22T21:52:05.305Z,66.69
2023-02-22T21:54:34.211Z,66.72
2023-02-22T21:57:04.721Z,66.77
2023-02-22T21:59:33.790Z,66.84
2023-02-22T22:02:03.005Z,67.03
2023-02-22T22:04:36.293Z,67.36
2023-02-22T22:07:10.753Z,67.25
2023-02-22T22:09:59.674Z,67.07
2023-02-22T22:12:39.232Z,67.08
2023-02-22T22:15:18.407Z,67.03
2023-02-22T22:17:47.854Z,66.66
2023-02-22T22:20:17.568Z,66.90
2023-02-22T22:22:47.264Z,66.93
2023-02-22T22:25:19.653Z,66.66
2023-02-22T22:27:48.445Z,66.78
2023-02-22T22:30:18.942Z,66.69
2023-02-22T22:32:47.748Z,66.90
2023-02-22T22:35:17.059Z,66.94
2023-02-22T22:37:51.511Z,66.92
2023-02-22T22:40:20.633Z,66.72
2023-02-22T22:42:49.477Z,67.07
2023-02-22T22:45:18.611Z,67.02
2023-02-22T22:47:47.467Z,67.15
2023-02-22T22:50:26.777Z,66.89
2023-02-22T22:52:58.645Z,67.16
2023-02-22T22:55:27.844Z,67.18
2023-02-22T22:57:59.095Z,67.05
2023-02-22T23:00:30.950Z,67.26
2023-02-22T23:02:59.902Z,67.06
2023-02-22T23:05:29.656Z,67.07
2023-02-22T23:07:58.549Z,67.13
2023-02-22T23:10:30.035Z,67.17
2023-02-22T23:12:59.193Z,67.31
2023-02-22T23:15:28.078Z,67.49
2023-02-22T23:17:59.332Z,67.82
2023-02-22T23:20:28.170Z,68.23
2023-02-22T23:22:58.251Z,68.41
2023-02-22T23:25:29.385Z,68.13
2023-02-22T23:27:58.702Z,68.59
2023-02-22T23:30:28.043Z,69.10
2023-02-22T23:32:57.402Z,69.32
2023-02-22T23:35:27.104Z,69.44
2023-02-22T23:37:58.358Z,70.00
2023-02-22T23:40:32.514Z,69.98
2023-02-22T23:43:04.441Z,70.13
2023-02-22T23:45:38.882Z,69.81
2023-02-22T23:48:07.656Z,69.52
2023-02-22T23:50:36.640Z,69.68
2023-02-22T23:53:06.349Z,70.00
2023-02-22T23:55:39.333Z,70.29
2023-02-22T23:58:08.227Z,69.76
